sensor_id;sensor_type;location;lat;lon;timestamp;P1;durP1;ratioP1;P2;durP2;ratioP2
8986;SDS011;4529;51.360;12.474;2022-12-10T00:02:07;20.83;;;11.70;;
8986;SDS011;4529;51.360;12.474;2022-12-10T00:07:12;25.30;;;11.40;;
8986;SDS011;4529;51.360;12.474;2022-12-10T00:12:16;21.37;;;12.60;;
8986;SDS011;4529;51.360;12.474;2022-12-10T00:17:20;22.50;;;11.90;;
8986;SDS011;4529;51.360;12.474;2022-12-10T00:22:24;21.97;;;12.07;;
8986;SDS011;4529;51.360;12.474;2022-12-10T00:27:28;23.47;;;11.07;;
8986;SDS011;4529;51.360;12.474;2022-12-10T00:32:32;20.03;;;9.77;;
8986;SDS011;4529;51.360;12.474;2022-12-10T00:37:36;20.60;;;9.73;;
8986;SDS011;4529;51.360;12.474;2022-12-10T00:42:40;22.43;;;10.27;;
8986;SDS011;4529;51.360;12.474;2022-12-10T00:47:45;22.73;;;10.30;;
8986;SDS011;4529;51.360;12.474;2022-12-10T00:52:49;20.63;;;10.37;;
8986;SDS011;4529;51.360;12.474;2022-12-10T00:57:53;21.87;;;10.53;;
8986;SDS011;4529;51.360;12.474;2022-12-10T01:02:57;20.77;;;10.67;;
8986;SDS011;4529;51.360;12.474;2022-12-10T01:08:01;23.73;;;11.27;;
8986;SDS011;4529;51.360;12.474;2022-12-10T01:13:05;22.27;;;10.93;;
8986;SDS011;4529;51.360;12.474;2022-12-10T01:18:08;22.10;;;10.77;;
8986;SDS011;4529;51.360;12.474;2022-12-10T01:23:11;24.67;;;12.70;;
8986;SDS011;4529;51.360;12.474;2022-12-10T01:28:15;25.00;;;12.67;;
8986;SDS011;4529;51.360;12.474;2022-12-10T01:33:18;27.83;;;13.23;;
8986;SDS011;4529;51.360;12.474;2022-12-10T01:38:23;27.27;;;13.23;;
8986;SDS011;4529;51.360;12.474;2022-12-10T01:43:27;26.43;;;12.53;;
8986;SDS011;4529;51.360;12.474;2022-12-10T01:48:31;23.47;;;11.63;;
8986;SDS011;4529;51.360;12.474;2022-12-10T01:53:34;25.60;;;12.50;;
8986;SDS011;4529;51.360;12.474;2022-12-10T01:58:38;22.80;;;11.23;;
8986;SDS011;4529;51.360;12.474;2022-12-10T02:09:33;21.60;;;11.33;;
8986;SDS011;4529;51.360;12.474;2022-12-10T02:20:02;21.57;;;10.90;;
8986;SDS011;4529;51.360;12.474;2022-12-10T02:25:23;19.07;;;10.90;;
8986;SDS011;4529;51.360;12.474;2022-12-10T02:30:27;22.20;;;11.07;;
8986;SDS011;4529;51.360;12.474;2022-12-10T02:35:31;21.53;;;10.40;;
8986;SDS011;4529;51.360;12.474;2022-12-10T02:40:35;19.20;;;10.27;;
8986;SDS011;4529;51.360;12.474;2022-12-10T02:45:38;21.83;;;10.40;;
8986;SDS011;4529;51.360;12.474;2022-12-10T02:50:41;21.33;;;9.97;;
8986;SDS011;4529;51.360;12.474;2022-12-10T03:06:45;21.00;;;10.97;;
8986;SDS011;4529;51.360;12.474;2022-12-10T03:11:34;21.27;;;11.07;;
8986;SDS011;4529;51.360;12.474;2022-12-10T03:16:38;21.03;;;10.83;;
8986;SDS011;4529;51.360;12.474;2022-12-10T03:21:41;20.77;;;10.63;;
8986;SDS011;4529;51.360;12.474;2022-12-10T03:26:45;24.10;;;12.27;;
8986;SDS011;4529;51.360;12.474;2022-12-10T03:31:47;22.20;;;11.27;;
8986;SDS011;4529;51.360;12.474;2022-12-10T03:36:51;21.83;;;11.20;;
8986;SDS011;4529;51.360;12.474;2022-12-10T03:41:55;20.93;;;11.47;;
8986;SDS011;4529;51.360;12.474;2022-12-10T03:47:00;21.83;;;11.60;;
8986;SDS011;4529;51.360;12.474;2022-12-10T03:52:04;18.97;;;9.63;;
8986;SDS011;4529;51.360;12.474;2022-12-10T03:57:07;21.93;;;9.90;;
8986;SDS011;4529;51.360;12.474;2022-12-10T04:02:10;25.13;;;11.73;;
8986;SDS011;4529;51.360;12.474;2022-12-10T04:07:14;22.93;;;11.17;;
8986;SDS011;4529;51.360;12.474;2022-12-10T04:12:17;26.13;;;12.23;;
8986;SDS011;4529;51.360;12.474;2022-12-10T04:17:21;26.70;;;12.80;;
8986;SDS011;4529;51.360;12.474;2022-12-10T04:22:26;27.27;;;12.50;;
8986;SDS011;4529;51.360;12.474;2022-12-10T04:27:30;25.83;;;12.97;;
8986;SDS011;4529;51.360;12.474;2022-12-10T04:32:32;26.87;;;13.40;;
8986;SDS011;4529;51.360;12.474;2022-12-10T04:37:36;26.60;;;12.70;;
8986;SDS011;4529;51.360;12.474;2022-12-10T04:42:39;27.53;;;12.73;;
8986;SDS011;4529;51.360;12.474;2022-12-10T04:47:43;26.83;;;12.73;;
8986;SDS011;4529;51.360;12.474;2022-12-10T04:52:47;27.57;;;13.73;;
8986;SDS011;4529;51.360;12.474;2022-12-10T04:57:51;28.23;;;13.90;;
8986;SDS011;4529;51.360;12.474;2022-12-10T05:02:55;28.00;;;13.53;;
8986;SDS011;4529;51.360;12.474;2022-12-10T05:07:59;25.10;;;12.70;;
8986;SDS011;4529;51.360;12.474;2022-12-10T05:13:02;26.30;;;13.07;;
8986;SDS011;4529;51.360;12.474;2022-12-10T05:18:06;28.47;;;13.03;;
8986;SDS011;4529;51.360;12.474;2022-12-10T05:23:15;29.40;;;13.87;;
8986;SDS011;4529;51.360;12.474;2022-12-10T05:28:19;26.37;;;13.50;;
8986;SDS011;4529;51.360;12.474;2022-12-10T05:33:25;29.40;;;13.00;;
8986;SDS011;4529;51.360;12.474;2022-12-10T05:38:29;27.13;;;13.87;;
8986;SDS011;4529;51.360;12.474;2022-12-10T05:43:32;26.43;;;12.93;;
8986;SDS011;4529;51.360;12.474;2022-12-10T05:48:36;30.77;;;14.17;;
8986;SDS011;4529;51.360;12.474;2022-12-10T05:53:40;32.00;;;13.83;;
8986;SDS011;4529;51.360;12.474;2022-12-10T05:58:45;27.37;;;13.33;;
8986;SDS011;4529;51.360;12.474;2022-12-10T06:03:48;28.57;;;13.50;;
8986;SDS011;4529;51.360;12.474;2022-12-10T06:08:51;27.47;;;13.70;;
8986;SDS011;4529;51.360;12.474;2022-12-10T06:13:55;29.43;;;13.13;;
8986;SDS011;4529;51.360;12.474;2022-12-10T06:19:01;30.30;;;13.73;;
8986;SDS011;4529;51.360;12.474;2022-12-10T06:24:04;25.23;;;12.53;;
8986;SDS011;4529;51.360;12.474;2022-12-10T06:29:08;26.90;;;12.63;;
8986;SDS011;4529;51.360;12.474;2022-12-10T06:34:12;28.97;;;13.53;;
8986;SDS011;4529;51.360;12.474;2022-12-10T06:39:16;23.20;;;10.43;;
8986;SDS011;4529;51.360;12.474;2022-12-10T06:44:20;22.07;;;10.17;;
8986;SDS011;4529;51.360;12.474;2022-12-10T06:49:25;24.30;;;9.97;;
8986;SDS011;4529;51.360;12.474;2022-12-10T06:54:28;20.17;;;9.70;;
8986;SDS011;4529;51.360;12.474;2022-12-10T06:59:32;24.07;;;10.73;;
8986;SDS011;4529;51.360;12.474;2022-12-10T07:04:35;19.57;;;9.27;;
8986;SDS011;4529;51.360;12.474;2022-12-10T07:09:38;25.13;;;9.73;;
8986;SDS011;4529;51.360;12.474;2022-12-10T07:14:42;21.47;;;9.90;;
8986;SDS011;4529;51.360;12.474;2022-12-10T07:19:46;24.30;;;9.90;;
8986;SDS011;4529;51.360;12.474;2022-12-10T07:24:50;24.10;;;10.03;;
8986;SDS011;4529;51.360;12.474;2022-12-10T07:29:54;23.50;;;9.07;;
8986;SDS011;4529;51.360;12.474;2022-12-10T07:34:58;23.30;;;10.33;;
8986;SDS011;4529;51.360;12.474;2022-12-10T07:40:03;25.57;;;10.80;;
8986;SDS011;4529;51.360;12.474;2022-12-10T07:45:07;24.60;;;10.60;;
8986;SDS011;4529;51.360;12.474;2022-12-10T07:50:10;27.37;;;11.23;;
8986;SDS011;4529;51.360;12.474;2022-12-10T07:55:14;27.33;;;12.37;;
8986;SDS011;4529;51.360;12.474;2022-12-10T08:00:18;20.50;;;10.00;;
8986;SDS011;4529;51.360;12.474;2022-12-10T08:05:22;24.00;;;10.93;;
8986;SDS011;4529;51.360;12.474;2022-12-10T08:10:26;23.43;;;10.37;;
8986;SDS011;4529;51.360;12.474;2022-12-10T08:15:30;23.37;;;10.67;;
8986;SDS011;4529;51.360;12.474;2022-12-10T08:20:33;22.10;;;10.23;;
8986;SDS011;4529;51.360;12.474;2022-12-10T08:25:37;23.33;;;9.77;;
8986;SDS011;4529;51.360;12.474;2022-12-10T08:30:45;23.20;;;10.20;;
8986;SDS011;4529;51.360;12.474;2022-12-10T08:35:50;24.10;;;10.87;;
8986;SDS011;4529;51.360;12.474;2022-12-10T08:40:54;24.77;;;11.97;;
8986;SDS011;4529;51.360;12.474;2022-12-10T08:45:58;27.60;;;12.33;;
8986;SDS011;4529;51.360;12.474;2022-12-10T08:51:03;29.63;;;13.00;;
8986;SDS011;4529;51.360;12.474;2022-12-10T08:56:06;27.40;;;13.03;;
8986;SDS011;4529;51.360;12.474;2022-12-10T09:01:11;25.53;;;13.10;;
8986;SDS011;4529;51.360;12.474;2022-12-10T09:06:19;28.30;;;13.40;;
8986;SDS011;4529;51.360;12.474;2022-12-10T09:11:21;28.90;;;13.07;;
8986;SDS011;4529;51.360;12.474;2022-12-10T09:16:33;28.90;;;13.50;;
8986;SDS011;4529;51.360;12.474;2022-12-10T09:21:35;25.77;;;13.03;;
8986;SDS011;4529;51.360;12.474;2022-12-10T09:26:39;30.73;;;14.03;;
8986;SDS011;4529;51.360;12.474;2022-12-10T09:31:43;29.40;;;12.60;;
8986;SDS011;4529;51.360;12.474;2022-12-10T09:36:47;26.23;;;11.13;;
8986;SDS011;4529;51.360;12.474;2022-12-10T09:41:54;23.90;;;11.30;;
8986;SDS011;4529;51.360;12.474;2022-12-10T09:47:12;21.03;;;10.30;;
8986;SDS011;4529;51.360;12.474;2022-12-10T09:52:18;24.83;;;11.47;;
8986;SDS011;4529;51.360;12.474;2022-12-10T09:57:28;24.07;;;11.03;;
8986;SDS011;4529;51.360;12.474;2022-12-10T10:02:31;7.00;;;4.20;;
8986;SDS011;4529;51.360;12.474;2022-12-10T10:07:36;4.53;;;3.27;;
8986;SDS011;4529;51.360;12.474;2022-12-10T10:12:39;6.53;;;3.30;;
8986;SDS011;4529;51.360;12.474;2022-12-10T10:17:42;4.50;;;2.43;;
8986;SDS011;4529;51.360;12.474;2022-12-10T10:22:46;3.43;;;2.73;;
8986;SDS011;4529;51.360;12.474;2022-12-10T10:27:49;4.90;;;3.33;;
8986;SDS011;4529;51.360;12.474;2022-12-10T10:32:55;24.57;;;11.87;;
8986;SDS011;4529;51.360;12.474;2022-12-10T10:37:59;29.60;;;13.47;;
8986;SDS011;4529;51.360;12.474;2022-12-10T10:43:02;20.53;;;11.10;;
8986;SDS011;4529;51.360;12.474;2022-12-10T10:48:14;19.77;;;9.33;;
8986;SDS011;4529;51.360;12.474;2022-12-10T10:53:20;16.50;;;8.83;;
8986;SDS011;4529;51.360;12.474;2022-12-10T10:58:31;18.23;;;9.47;;
8986;SDS011;4529;51.360;12.474;2022-12-10T11:03:35;18.43;;;8.53;;
8986;SDS011;4529;51.360;12.474;2022-12-10T11:08:38;17.17;;;8.03;;
8986;SDS011;4529;51.360;12.474;2022-12-10T11:13:42;20.40;;;9.90;;
8986;SDS011;4529;51.360;12.474;2022-12-10T11:23:59;17.83;;;8.93;;
8986;SDS011;4529;51.360;12.474;2022-12-10T11:40:13;21.10;;;10.70;;
8986;SDS011;4529;51.360;12.474;2022-12-10T11:51:02;20.33;;;11.30;;
8986;SDS011;4529;51.360;12.474;2022-12-10T11:56:14;24.33;;;11.63;;
8986;SDS011;4529;51.360;12.474;2022-12-10T12:01:43;19.70;;;11.00;;
8986;SDS011;4529;51.360;12.474;2022-12-10T12:12:34;20.57;;;11.03;;
8986;SDS011;4529;51.360;12.474;2022-12-10T12:17:37;19.07;;;10.70;;
8986;SDS011;4529;51.360;12.474;2022-12-10T12:22:46;19.77;;;10.97;;
8986;SDS011;4529;51.360;12.474;2022-12-10T12:27:50;18.73;;;10.47;;
8986;SDS011;4529;51.360;12.474;2022-12-10T12:33:10;22.50;;;12.03;;
8986;SDS011;4529;51.360;12.474;2022-12-10T12:38:21;18.93;;;11.33;;
8986;SDS011;4529;51.360;12.474;2022-12-10T12:48:58;19.93;;;10.80;;
8986;SDS011;4529;51.360;12.474;2022-12-10T12:54:15;18.07;;;10.73;;
8986;SDS011;4529;51.360;12.474;2022-12-10T12:59:29;44.00;;;22.87;;
8986;SDS011;4529;51.360;12.474;2022-12-10T13:04:34;21.73;;;10.33;;
8986;SDS011;4529;51.360;12.474;2022-12-10T13:09:44;20.40;;;11.10;;
8986;SDS011;4529;51.360;12.474;2022-12-10T13:31:39;19.97;;;11.33;;
8986;SDS011;4529;51.360;12.474;2022-12-10T13:36:26;20.50;;;11.90;;
8986;SDS011;4529;51.360;12.474;2022-12-10T13:42:35;20.53;;;11.40;;
8986;SDS011;4529;51.360;12.474;2022-12-10T13:52:19;22.60;;;12.63;;
8986;SDS011;4529;51.360;12.474;2022-12-10T13:57:24;21.43;;;11.63;;
8986;SDS011;4529;51.360;12.474;2022-12-10T14:07:39;22.80;;;12.10;;
8986;SDS011;4529;51.360;12.474;2022-12-10T14:12:42;20.27;;;11.87;;
8986;SDS011;4529;51.360;12.474;2022-12-10T14:28:29;19.87;;;11.97;;
8986;SDS011;4529;51.360;12.474;2022-12-10T14:33:31;20.50;;;12.60;;
8986;SDS011;4529;51.360;12.474;2022-12-10T14:38:36;21.23;;;12.00;;
8986;SDS011;4529;51.360;12.474;2022-12-10T14:43:40;23.53;;;12.60;;
8986;SDS011;4529;51.360;12.474;2022-12-10T14:48:50;22.17;;;12.67;;
8986;SDS011;4529;51.360;12.474;2022-12-10T14:53:53;21.07;;;12.07;;
8986;SDS011;4529;51.360;12.474;2022-12-10T14:59:14;22.27;;;12.97;;
8986;SDS011;4529;51.360;12.474;2022-12-10T15:04:16;25.30;;;13.37;;
8986;SDS011;4529;51.360;12.474;2022-12-10T15:09:20;20.77;;;12.13;;
8986;SDS011;4529;51.360;12.474;2022-12-10T15:14:22;22.73;;;13.70;;
8986;SDS011;4529;51.360;12.474;2022-12-10T15:24:35;22.30;;;12.50;;
8986;SDS011;4529;51.360;12.474;2022-12-10T15:29:39;21.87;;;12.03;;
8986;SDS011;4529;51.360;12.474;2022-12-10T15:34:47;22.97;;;12.87;;
8986;SDS011;4529;51.360;12.474;2022-12-10T15:39:56;22.70;;;12.93;;
8986;SDS011;4529;51.360;12.474;2022-12-10T15:50:26;22.07;;;13.03;;
8986;SDS011;4529;51.360;12.474;2022-12-10T15:55:30;22.83;;;13.33;;
8986;SDS011;4529;51.360;12.474;2022-12-10T16:00:35;22.17;;;12.33;;
8986;SDS011;4529;51.360;12.474;2022-12-10T16:05:39;21.70;;;13.13;;
8986;SDS011;4529;51.360;12.474;2022-12-10T16:10:43;22.83;;;13.50;;
8986;SDS011;4529;51.360;12.474;2022-12-10T16:16:00;22.27;;;12.77;;
8986;SDS011;4529;51.360;12.474;2022-12-10T16:21:04;25.20;;;13.43;;
8986;SDS011;4529;51.360;12.474;2022-12-10T16:26:14;23.50;;;13.97;;
8986;SDS011;4529;51.360;12.474;2022-12-10T16:31:17;26.73;;;14.10;;
8986;SDS011;4529;51.360;12.474;2022-12-10T16:36:20;22.83;;;12.60;;
8986;SDS011;4529;51.360;12.474;2022-12-10T16:41:24;21.37;;;12.50;;
8986;SDS011;4529;51.360;12.474;2022-12-10T16:46:32;22.43;;;13.00;;
8986;SDS011;4529;51.360;12.474;2022-12-10T16:51:36;24.67;;;13.97;;
8986;SDS011;4529;51.360;12.474;2022-12-10T16:56:40;26.43;;;13.87;;
8986;SDS011;4529;51.360;12.474;2022-12-10T17:01:44;21.50;;;12.87;;
8986;SDS011;4529;51.360;12.474;2022-12-10T17:06:48;22.03;;;12.73;;
8986;SDS011;4529;51.360;12.474;2022-12-10T17:11:52;18.77;;;11.43;;
8986;SDS011;4529;51.360;12.474;2022-12-10T17:17:03;21.30;;;11.37;;
8986;SDS011;4529;51.360;12.474;2022-12-10T17:22:06;18.47;;;11.43;;
8986;SDS011;4529;51.360;12.474;2022-12-10T17:27:14;21.03;;;11.93;;
8986;SDS011;4529;51.360;12.474;2022-12-10T17:32:16;21.17;;;11.87;;
8986;SDS011;4529;51.360;12.474;2022-12-10T17:37:20;19.60;;;11.47;;
8986;SDS011;4529;51.360;12.474;2022-12-10T17:42:24;16.80;;;10.23;;
8986;SDS011;4529;51.360;12.474;2022-12-10T17:47:27;19.43;;;11.80;;
8986;SDS011;4529;51.360;12.474;2022-12-10T17:52:30;19.40;;;12.00;;
8986;SDS011;4529;51.360;12.474;2022-12-10T17:57:34;18.07;;;10.93;;
8986;SDS011;4529;51.360;12.474;2022-12-10T18:02:37;17.97;;;11.10;;
8986;SDS011;4529;51.360;12.474;2022-12-10T18:07:42;16.70;;;10.80;;
8986;SDS011;4529;51.360;12.474;2022-12-10T18:12:46;23.10;;;13.53;;
8986;SDS011;4529;51.360;12.474;2022-12-10T18:17:59;34.07;;;17.20;;
8986;SDS011;4529;51.360;12.474;2022-12-10T18:23:03;22.07;;;12.33;;
8986;SDS011;4529;51.360;12.474;2022-12-10T18:28:15;18.53;;;12.47;;
8986;SDS011;4529;51.360;12.474;2022-12-10T18:33:25;19.10;;;12.17;;
8986;SDS011;4529;51.360;12.474;2022-12-10T18:38:29;21.13;;;12.70;;
8986;SDS011;4529;51.360;12.474;2022-12-10T18:43:33;19.70;;;11.87;;
8986;SDS011;4529;51.360;12.474;2022-12-10T18:48:37;21.57;;;12.10;;
8986;SDS011;4529;51.360;12.474;2022-12-10T18:53:42;22.97;;;13.73;;
8986;SDS011;4529;51.360;12.474;2022-12-10T18:58:46;24.50;;;12.70;;
8986;SDS011;4529;51.360;12.474;2022-12-10T19:03:50;20.07;;;12.63;;
8986;SDS011;4529;51.360;12.474;2022-12-10T19:08:54;21.37;;;13.27;;
8986;SDS011;4529;51.360;12.474;2022-12-10T19:13:57;20.57;;;13.53;;
8986;SDS011;4529;51.360;12.474;2022-12-10T19:19:00;22.33;;;13.47;;
8986;SDS011;4529;51.360;12.474;2022-12-10T19:24:04;23.20;;;14.10;;
8986;SDS011;4529;51.360;12.474;2022-12-10T19:29:18;23.60;;;14.37;;
8986;SDS011;4529;51.360;12.474;2022-12-10T19:34:18;24.67;;;14.67;;
8986;SDS011;4529;51.360;12.474;2022-12-10T19:39:22;21.80;;;13.83;;
8986;SDS011;4529;51.360;12.474;2022-12-10T19:44:25;26.00;;;14.27;;
8986;SDS011;4529;51.360;12.474;2022-12-10T19:49:29;22.33;;;13.80;;
8986;SDS011;4529;51.360;12.474;2022-12-10T19:54:33;23.07;;;14.13;;
8986;SDS011;4529;51.360;12.474;2022-12-10T19:59:37;21.43;;;13.17;;
8986;SDS011;4529;51.360;12.474;2022-12-10T20:04:42;23.17;;;13.70;;
8986;SDS011;4529;51.360;12.474;2022-12-10T20:09:46;20.93;;;12.60;;
8986;SDS011;4529;51.360;12.474;2022-12-10T20:14:49;19.20;;;12.33;;
8986;SDS011;4529;51.360;12.474;2022-12-10T20:19:53;22.07;;;13.67;;
8986;SDS011;4529;51.360;12.474;2022-12-10T20:24:56;23.83;;;15.03;;
8986;SDS011;4529;51.360;12.474;2022-12-10T20:30:00;29.37;;;15.40;;
8986;SDS011;4529;51.360;12.474;2022-12-10T20:35:03;25.50;;;14.43;;
8986;SDS011;4529;51.360;12.474;2022-12-10T20:40:14;25.23;;;15.10;;
8986;SDS011;4529;51.360;12.474;2022-12-10T20:45:16;24.27;;;14.10;;
8986;SDS011;4529;51.360;12.474;2022-12-10T20:50:20;23.70;;;13.67;;
8986;SDS011;4529;51.360;12.474;2022-12-10T20:55:23;20.40;;;13.13;;
8986;SDS011;4529;51.360;12.474;2022-12-10T21:00:26;19.07;;;12.27;;
8986;SDS011;4529;51.360;12.474;2022-12-10T21:05:30;17.50;;;11.77;;
8986;SDS011;4529;51.360;12.474;2022-12-10T21:10:34;18.03;;;10.87;;
8986;SDS011;4529;51.360;12.474;2022-12-10T21:15:38;18.13;;;11.33;;
8986;SDS011;4529;51.360;12.474;2022-12-10T21:20:42;17.47;;;11.10;;
8986;SDS011;4529;51.360;12.474;2022-12-10T21:25:46;17.83;;;11.30;;
8986;SDS011;4529;51.360;12.474;2022-12-10T21:30:50;17.33;;;10.93;;
8986;SDS011;4529;51.360;12.474;2022-12-10T21:35:53;18.13;;;11.30;;
8986;SDS011;4529;51.360;12.474;2022-12-10T21:40:57;19.03;;;11.30;;
8986;SDS011;4529;51.360;12.474;2022-12-10T21:46:05;18.13;;;11.30;;
8986;SDS011;4529;51.360;12.474;2022-12-10T21:51:04;20.67;;;11.73;;
8986;SDS011;4529;51.360;12.474;2022-12-10T21:56:08;19.33;;;11.87;;
8986;SDS011;4529;51.360;12.474;2022-12-10T22:01:12;19.20;;;12.07;;
8986;SDS011;4529;51.360;12.474;2022-12-10T22:06:17;19.70;;;12.40;;
8986;SDS011;4529;51.360;12.474;2022-12-10T22:11:20;18.50;;;11.77;;
8986;SDS011;4529;51.360;12.474;2022-12-10T22:16:24;19.33;;;11.77;;
8986;SDS011;4529;51.360;12.474;2022-12-10T22:21:27;17.00;;;10.77;;
8986;SDS011;4529;51.360;12.474;2022-12-10T22:26:31;16.43;;;10.93;;
8986;SDS011;4529;51.360;12.474;2022-12-10T22:31:34;15.77;;;10.20;;
8986;SDS011;4529;51.360;12.474;2022-12-10T22:36:37;15.90;;;10.30;;
8986;SDS011;4529;51.360;12.474;2022-12-10T22:41:42;15.23;;;10.17;;
8986;SDS011;4529;51.360;12.474;2022-12-10T22:46:46;16.90;;;10.03;;
8986;SDS011;4529;51.360;12.474;2022-12-10T22:51:50;16.67;;;10.17;;
8986;SDS011;4529;51.360;12.474;2022-12-10T22:56:53;16.13;;;9.57;;
8986;SDS011;4529;51.360;12.474;2022-12-10T23:01:57;16.97;;;9.50;;
8986;SDS011;4529;51.360;12.474;2022-12-10T23:07:00;13.73;;;8.03;;
8986;SDS011;4529;51.360;12.474;2022-12-10T23:12:05;13.47;;;8.40;;
8986;SDS011;4529;51.360;12.474;2022-12-10T23:17:09;15.93;;;8.90;;
8986;SDS011;4529;51.360;12.474;2022-12-10T23:22:13;17.47;;;8.83;;
8986;SDS011;4529;51.360;12.474;2022-12-10T23:27:17;15.27;;;8.53;;
8986;SDS011;4529;51.360;12.474;2022-12-10T23:32:20;15.97;;;9.03;;
8986;SDS011;4529;51.360;12.474;2022-12-10T23:37:24;16.83;;;9.33;;
8986;SDS011;4529;51.360;12.474;2022-12-10T23:42:28;16.53;;;9.67;;
8986;SDS011;4529;51.360;12.474;2022-12-10T23:47:31;16.80;;;10.43;;
8986;SDS011;4529;51.360;12.474;2022-12-10T23:52:35;14.50;;;8.93;;
8986;SDS011;4529;51.360;12.474;2022-12-10T23:57:39;14.03;;;8.77;;
